Time;durP1;ratioP1;P1;durP2;ratioP2;P2;SDS_P1;SDS_P2;PMS_P1;PMS_P2;Temp;Humidity;BMP_temperature;BMP_pressure;BME280_temperature;BME280_humidity;BME280_pressure;Samples;Min_cycle;Max_cycle;Signal;HPM_P1;HPM_P2
2022/03/11 00:02:16;;;;;;;;;;;;;;;-4.03;63.02;95916.53;5137276;27;1027;-48
2022/03/11 00:04:44;;;;;;;;;;;;;;;-4.00;63.16;95911.22;5137219;27;1165;-48
2022/03/11 00:07:10;;;;;;;;;;;;;;;-3.85;62.86;95910.66;5137169;27;1039;-48
2022/03/11 00:09:36;;;;;;;;;;;;;;;-3.85;63.02;95908.06;5137179;27;1047;-48
2022/03/11 00:12:02;;;;;;;;;;;;;;;-3.87;62.31;95906.38;5136444;27;1032;-48
2022/03/11 00:14:28;;;;;;;;;;;;;;;-3.81;62.63;95900.97;5137037;27;1234;-49
2022/03/11 00:16:54;;;;;;;;;;;;;;;-3.78;62.36;95906.91;5136626;27;2037;-48
2022/03/11 00:19:20;;;;;;;;;;;;;;;-3.74;62.36;95907.66;5137073;27;1011;-48
2022/03/11 00:21:46;;;;;;;;;;;;;;;-3.59;61.02;95907.06;5136874;27;991;-48
2022/03/11 00:24:12;;;;;;;;;;;;;;;-3.48;60.63;95900.63;5136839;27;1024;-48
2022/03/11 00:26:38;;;;;;;;;;;;;;;-3.47;60.19;95902.31;5136675;27;1149;-48
2022/03/11 00:29:04;;;;;;;;;;;;;;;-3.65;60.96;95902.09;5136491;27;1072;-48
2022/03/11 00:31:30;;;;;;;;;;;;;;;-3.69;58.85;95899.66;5136827;27;984;-48
2022/03/11 00:33:58;;;;;;;;;;;;;;;-3.65;58.64;95901.25;5136221;27;1036;-48
2022/03/11 00:36:25;;;;;;;;;;;;;;;-3.59;60.30;95890.53;5136484;27;1906;-48
2022/03/11 00:38:51;;;;;;;;;;;;;;;-3.63;60.66;95892.41;5136586;27;1035;-48
2022/03/11 00:41:17;;;;;;;;;;;;;;;-3.61;61.10;95881.91;5136716;27;969;-48
2022/03/11 00:43:43;;;;;;;;;;;;;;;-3.51;61.82;95888.50;5136336;27;1022;-48
2022/03/11 00:46:09;;;;;;;;;;;;;;;-3.48;62.42;95888.38;5136632;27;1064;-48
2022/03/11 00:48:35;;;;;;;;;;;;;;;-3.73;61.81;95891.91;5136087;27;1075;-48
2022/03/11 00:51:01;;;;;;;;;;;;;;;-4.14;63.09;95883.81;5131007;27;1176;-48
2022/03/11 00:53:30;;;;;;;;;;;;;;;-4.39;64.26;95886.41;5115615;28;950;-48
2022/03/11 00:55:56;;;;;;;;;;;;;;;-4.54;63.75;95885.19;5115382;28;1910;-48
2022/03/11 00:58:22;;;;;;;;;;;;;;;-4.38;63.24;95884.66;5115638;28;972;-48
2022/03/11 01:00:48;;;;;;;;;;;;;;;-4.38;63.38;95890.75;5115620;28;988;-48
2022/03/11 01:03:14;;;;;;;;;;;;;;;-4.28;64.31;95893.91;5115441;28;1032;-48
2022/03/11 01:05:40;;;;;;;;;;;;;;;-4.23;63.98;95889.38;5115378;28;1864;-48
2022/03/11 01:08:06;;;;;;;;;;;;;;;-4.18;63.96;95882.22;5115168;28;1028;-48
2022/03/11 01:10:32;;;;;;;;;;;;;;;-4.16;63.82;95885.63;5115254;28;996;-48
2022/03/11 01:12:58;;;;;;;;;;;;;;;-4.21;64.42;95882.34;5114850;28;1024;-48
2022/03/11 01:15:24;;;;;;;;;;;;;;;-4.15;63.51;95887.34;5115255;28;1130;-49
2022/03/11 01:17:50;;;;;;;;;;;;;;;-4.10;64.01;95883.72;5114773;28;2277;-48
2022/03/11 01:20:16;;;;;;;;;;;;;;;-4.20;64.24;95878.81;5114856;28;984;-48
2022/03/11 01:22:42;;;;;;;;;;;;;;;-4.46;64.37;95874.47;5115226;28;961;-49
2022/03/11 01:25:08;;;;;;;;;;;;;;;-4.59;64.65;95879.28;5114924;28;1103;-48
2022/03/11 01:27:36;;;;;;;;;;;;;;;-4.67;65.37;95872.59;5114882;28;991;-48
2022/03/11 01:30:04;;;;;;;;;;;;;;;-4.65;62.88;95871.66;5114994;28;1058;-48
2022/03/11 01:32:30;;;;;;;;;;;;;;;-4.52;62.85;95874.69;5114789;28;1044;-48
2022/03/11 01:34:56;;;;;;;;;;;;;;;-4.30;62.74;95869.59;5114749;28;952;-48
2022/03/11 01:37:22;;;;;;;;;;;;;;;-4.10;62.92;95862.81;5114794;28;1988;-48
2022/03/11 01:39:48;;;;;;;;;;;;;;;-4.01;62.79;95859.88;5114453;28;1123;-48
2022/03/11 01:42:14;;;;;;;;;;;;;;;-4.17;64.61;95867.41;5114454;28;996;-48
2022/03/11 01:44:40;;;;;;;;;;;;;;;-4.54;63.57;95866.91;5114748;28;1022;-48
2022/03/11 01:47:07;;;;;;;;;;;;;;;-4.50;64.37;95867.66;5114731;28;1012;-48
2022/03/11 01:49:34;;;;;;;;;;;;;;;-4.37;64.21;95861.13;5114623;28;988;-48
2022/03/11 01:52:00;;;;;;;;;;;;;;;-4.49;64.99;95868.53;5128088;27;1863;-48
2022/03/11 01:54:26;;;;;;;;;;;;;;;-4.69;64.96;95877.03;5134852;27;953;-48
2022/03/11 01:56:52;;;;;;;;;;;;;;;-4.82;64.80;95866.13;5134842;27;1910;-49
2022/03/11 01:59:19;;;;;;;;;;;;;;;-4.87;65.51;95870.69;5135052;27;1008;-48
2022/03/11 02:01:45;;;;;;;;;;;;;;;-4.68;65.28;95874.38;5134872;27;1035;-48
2022/03/11 02:04:11;;;;;;;;;;;;;;;-4.57;65.08;95874.00;5133756;27;1015;-48
2022/03/11 02:06:37;;;;;;;;;;;;;;;-4.58;65.36;95869.69;5133594;27;1044;-48
2022/03/11 02:09:04;;;;;;;;;;;;;;;-4.56;66.08;95867.88;5134874;27;1027;-48
2022/03/11 02:11:30;;;;;;;;;;;;;;;-4.49;66.10;95878.97;5133820;27;951;-48
2022/03/11 02:13:57;;;;;;;;;;;;;;;-4.62;65.93;95875.94;5134360;27;1040;-48
2022/03/11 02:16:25;;;;;;;;;;;;;;;-4.63;65.42;95877.69;5134631;27;1909;-48
2022/03/11 02:18:51;;;;;;;;;;;;;;;-4.59;65.97;95871.47;5134472;27;965;-49
2022/03/11 02:21:20;;;;;;;;;;;;;;;-4.51;64.21;95871.19;5134821;27;1003;-48
2022/03/11 02:23:47;;;;;;;;;;;;;;;-4.34;64.25;95868.84;5134521;27;1047;-48
2022/03/11 02:26:14;;;;;;;;;;;;;;;-4.29;63.83;95870.44;5133346;27;1067;-48
2022/03/11 02:28:40;;;;;;;;;;;;;;;-4.18;64.80;95871.75;5134552;27;1042;-48
2022/03/11 02:31:06;;;;;;;;;;;;;;;-4.08;64.53;95867.06;5133664;27;933;-49
2022/03/11 02:33:33;;;;;;;;;;;;;;;-4.18;65.71;95871.75;5134405;27;1040;-48
2022/03/11 02:35:59;;;;;;;;;;;;;;;-4.36;65.75;95860.22;5134147;27;1905;-49
2022/03/11 02:38:26;;;;;;;;;;;;;;;-4.49;65.26;95873.75;5134570;27;1194;-48
2022/03/11 02:40:52;;;;;;;;;;;;;;;-4.65;65.67;95873.41;5134258;27;1007;-48
2022/03/11 02:43:18;;;;;;;;;;;;;;;-4.60;66.13;95877.56;5134334;27;1063;-48
2022/03/11 02:45:44;;;;;;;;;;;;;;;-4.39;65.77;95869.91;5134155;27;999;-48
2022/03/11 02:48:10;;;;;;;;;;;;;;;-4.46;66.90;95871.03;5134539;27;1003;-48
2022/03/11 02:50:36;;;;;;;;;;;;;;;-4.56;67.25;95873.09;5132397;27;1219;-48
2022/03/11 02:53:02;;;;;;;;;;;;;;;-4.61;66.92;95870.66;5113782;28;1044;-48
2022/03/11 02:55:28;;;;;;;;;;;;;;;-4.41;66.48;95874.34;5114007;28;1041;-49
2022/03/11 02:57:54;;;;;;;;;;;;;;;-4.45;66.10;95870.97;5113683;28;1992;-48
2022/03/11 03:00:20;;;;;;;;;;;;;;;-4.78;66.59;95878.19;5113386;28;1032;-48
2022/03/11 03:02:46;;;;;;;;;;;;;;;-4.86;67.26;95874.97;5112621;28;957;-48
2022/03/11 03:05:13;;;;;;;;;;;;;;;-4.84;67.73;95875.78;5113597;28;1136;-48
2022/03/11 03:07:40;;;;;;;;;;;;;;;-4.65;66.98;95874.25;5113429;28;1045;-48
2022/03/11 03:10:06;;;;;;;;;;;;;;;-4.64;66.43;95872.53;5113799;28;1042;-48
2022/03/11 03:12:32;;;;;;;;;;;;;;;-4.94;65.62;95876.06;5113512;28;995;-48
2022/03/11 03:14:58;;;;;;;;;;;;;;;-5.35;66.50;95875.66;5113045;28;1233;-49
2022/03/11 03:17:24;;;;;;;;;;;;;;;-5.17;67.11;95879.44;5113366;28;1983;-48
2022/03/11 03:19:50;;;;;;;;;;;;;;;-5.22;67.69;95881.31;5113190;28;1964;-49
2022/03/11 03:22:16;;;;;;;;;;;;;;;-5.37;67.28;95874.84;5113319;28;1078;-48
2022/03/11 03:24:42;;;;;;;;;;;;;;;-5.35;65.78;95875.66;5113192;28;1036;-49
2022/03/11 03:27:09;;;;;;;;;;;;;;;-5.55;67.26;95873.63;5113372;28;1306;-48
2022/03/11 03:29:35;;;;;;;;;;;;;;;-5.45;66.79;95874.22;5113261;28;1975;-48
2022/03/11 03:32:01;;;;;;;;;;;;;;;-5.18;67.60;95874.25;5113086;28;1011;-48
2022/03/11 03:34:29;;;;;;;;;;;;;;;-5.00;67.25;95876.28;5113303;28;1027;-48
2022/03/11 03:36:58;;;;;;;;;;;;;;;-4.90;66.40;95879.44;5112836;28;2004;-48
2022/03/11 03:39:24;;;;;;;;;;;;;;;-5.00;66.40;95880.66;5113490;28;1043;-48
2022/03/11 03:41:51;;;;;;;;;;;;;;;-5.12;67.28;95879.28;5113838;28;1117;-48
2022/03/11 03:44:17;;;;;;;;;;;;;;;-5.13;67.81;95872.34;5115788;28;1083;-48
2022/03/11 03:46:43;;;;;;;;;;;;;;;-5.18;67.71;95877.72;5115873;28;1102;-48
2022/03/11 03:49:09;;;;;;;;;;;;;;;-5.22;67.00;95888.28;5116932;28;1028;-48
2022/03/11 03:51:38;;;;;;;;;;;;;;;-5.26;67.40;95884.06;5126831;27;1219;-48
2022/03/11 03:54:10;;;;;;;;;;;;;;;-5.26;66.63;95884.06;5137262;27;1110;-48
2022/03/11 03:56:36;;;;;;;;;;;;;;;-5.15;66.64;95893.25;5137069;27;1909;-48
2022/03/11 03:59:04;;;;;;;;;;;;;;;-4.86;66.37;95893.25;5137498;27;1143;-48
2022/03/11 04:01:34;;;;;;;;;;;;;;;-4.60;65.24;95893.22;5136911;27;1189;-48
2022/03/11 04:04:02;;;;;;;;;;;;;;;-4.55;65.96;95896.53;5137088;27;1083;-48
2022/03/11 04:06:30;;;;;;;;;;;;;;;-4.68;66.93;95902.25;5137226;27;1034;-48
2022/03/11 04:08:57;;;;;;;;;;;;;;;-4.84;66.41;95901.88;5137384;27;1072;-48
2022/03/11 04:11:23;;;;;;;;;;;;;;;-5.03;67.25;95897.22;5137151;27;968;-48
2022/03/11 04:13:50;;;;;;;;;;;;;;;-4.95;67.14;95904.81;5137011;27;1003;-48
2022/03/11 04:16:16;;;;;;;;;;;;;;;-4.89;66.49;95902.03;5136925;27;1933;-48
2022/03/11 04:18:42;;;;;;;;;;;;;;;-4.69;65.66;95901.34;5136769;27;1088;-48
2022/03/11 04:21:08;;;;;;;;;;;;;;;-4.48;65.15;95902.41;5136662;27;1019;-47
2022/03/11 04:23:34;;;;;;;;;;;;;;;-4.43;65.89;95897.03;5137110;27;1089;-48
2022/03/11 04:26:01;;;;;;;;;;;;;;;-4.76;66.41;95905.06;5136804;27;972;-47
2022/03/11 04:28:27;;;;;;;;;;;;;;;-5.14;67.26;95907.16;5137037;27;999;-47
2022/03/11 04:30:53;;;;;;;;;;;;;;;-5.20;67.58;95910.78;5136287;27;913;-47
2022/03/11 04:33:20;;;;;;;;;;;;;;;-5.08;66.82;95913.94;5136486;27;1087;-48
2022/03/11 04:35:46;;;;;;;;;;;;;;;-4.97;66.67;95923.16;5136218;27;1992;-47
2022/03/11 04:38:12;;;;;;;;;;;;;;;-4.77;66.18;95914.66;5136748;27;1057;-47
2022/03/11 04:40:38;;;;;;;;;;;;;;;-4.53;66.12;95920.00;5136437;27;1036;-48
2022/03/11 04:43:04;;;;;;;;;;;;;;;-4.60;67.70;95921.09;5136357;27;993;-48
2022/03/11 04:45:31;;;;;;;;;;;;;;;-4.68;67.92;95921.34;5136579;27;1022;-47
2022/03/11 04:47:57;;;;;;;;;;;;;;;-4.56;68.13;95928.75;5136157;27;964;-48
2022/03/11 04:50:23;;;;;;;;;;;;;;;-4.52;68.36;95934.72;5136219;27;1016;-48
2022/03/11 04:52:49;;;;;;;;;;;;;;;-4.49;67.34;95932.03;5115190;28;1039;-48
2022/03/11 04:55:16;;;;;;;;;;;;;;;-4.51;66.47;95939.06;5115417;28;965;-48
2022/03/11 04:57:42;;;;;;;;;;;;;;;-4.51;65.26;95932.06;5115765;28;1917;-47
2022/03/11 05:00:08;;;;;;;;;;;;;;;-4.30;65.04;95944.47;5115690;28;960;-48
2022/03/11 05:02:34;;;;;;;;;;;;;;;-4.27;66.57;95942.59;5115344;28;954;-47
2022/03/11 05:05:07;;;;;;;;;;;;;;;-4.27;66.33;95950.41;5115566;28;976;-48
2022/03/11 05:07:33;;;;;;;;;;;;;;;-4.28;66.63;95950.50;5114209;28;958;-48
2022/03/11 05:10:00;;;;;;;;;;;;;;;-4.31;66.62;95951.44;5115183;28;1866;-46
2022/03/11 05:12:26;;;;;;;;;;;;;;;-4.29;67.03;95944.41;5115092;28;1335;-47
2022/03/11 05:14:52;;;;;;;;;;;;;;;-4.17;66.89;95945.78;5115032;28;1237;-48
2022/03/11 05:17:18;;;;;;;;;;;;;;;-4.06;65.33;95953.22;5115273;28;1910;-48
2022/03/11 05:19:45;;;;;;;;;;;;;;;-4.10;65.37;95954.22;5115299;28;1052;-48
2022/03/11 05:22:11;;;;;;;;;;;;;;;-4.06;65.12;95953.22;5114938;28;1048;-47
2022/03/11 05:24:37;;;;;;;;;;;;;;;-4.00;64.88;95950.41;5115110;28;1032;-48
2022/03/11 05:27:04;;;;;;;;;;;;;;;-3.84;64.41;95963.78;5115091;27;975;-47
2022/03/11 05:29:31;;;;;;;;;;;;;;;-3.69;63.92;95955.38;5114962;28;1027;-47
2022/03/11 05:31:58;;;;;;;;;;;;;;;-3.63;63.63;95963.00;5114636;28;1032;-48
2022/03/11 05:34:24;;;;;;;;;;;;;;;-3.70;63.20;95960.66;5115199;28;1055;-47
2022/03/11 05:36:50;;;;;;;;;;;;;;;-3.76;64.41;95961.72;5114731;28;2342;-47
2022/03/11 05:39:16;;;;;;;;;;;;;;;-3.68;64.78;95959.72;5114795;28;1087;-48
2022/03/11 05:41:42;;;;;;;;;;;;;;;-3.82;64.59;95961.97;5114810;28;944;-47
2022/03/11 05:44:08;;;;;;;;;;;;;;;-3.67;64.17;95957.94;5114178;28;1084;-47
2022/03/11 05:46:35;;;;;;;;;;;;;;;-3.47;64.70;95959.81;5114571;28;976;-47
2022/03/11 05:49:01;;;;;;;;;;;;;;;-3.40;64.61;95959.53;5114643;28;1077;-48
2022/03/11 05:51:27;;;;;;;;;;;;;;;-3.29;64.63;95950.47;5123853;27;1177;-48
2022/03/11 05:53:53;;;;;;;;;;;;;;;-3.07;63.20;95953.97;5134756;27;989;-48
2022/03/11 05:56:20;;;;;;;;;;;;;;;-2.84;63.57;95953.06;5134887;27;1917;-48
2022/03/11 05:58:46;;;;;;;;;;;;;;;-2.65;63.06;95950.56;5134707;27;1063;-47
2022/03/11 06:01:12;;;;;;;;;;;;;;;-2.46;62.33;95955.06;5135479;27;1015;-47
2022/03/11 06:03:38;;;;;;;;;;;;;;;-2.33;61.46;95958.00;5134946;27;1035;-48
2022/03/11 06:06:04;;;;;;;;;;;;;;;-2.16;61.08;95955.56;5134718;27;979;-49
2022/03/11 06:08:30;;;;;;;;;;;;;;;-1.83;61.32;95962.91;5134703;27;1051;-48
2022/03/11 06:10:56;;;;;;;;;;;;;;;-1.58;59.80;95955.66;5134781;27;961;-49
2022/03/11 06:13:23;;;;;;;;;;;;;;;-1.33;58.98;95961.59;5133292;27;1000;-48
2022/03/11 06:15:49;;;;;;;;;;;;;;;-1.22;58.43;95956.72;5134437;27;1992;-48
2022/03/11 06:18:15;;;;;;;;;;;;;;;-1.29;58.79;95958.78;5134675;27;1035;-49
2022/03/11 06:20:41;;;;;;;;;;;;;;;-1.33;60.45;95961.59;5134545;27;1098;-48
2022/03/11 06:23:07;;;;;;;;;;;;;;;0.44;55.76;95964.44;5134391;27;967;-48
2022/03/11 06:25:33;;;;;;;;;;;;;;;3.84;47.88;95962.22;5134483;27;1040;-48
2022/03/11 06:27:59;;;;;;;;;;;;;;;8.13;38.49;95969.72;5134534;27;952;-49
2022/03/11 06:30:25;;;;;;;;;;;;;;;11.14;32.42;95959.28;5134282;27;1040;-49
2022/03/11 06:32:51;;;;;;;;;;;;;;;13.12;29.30;95972.19;5134146;27;1872;-48
2022/03/11 06:35:18;;;;;;;;;;;;;;;10.78;31.33;95970.75;5134614;27;965;-49
2022/03/11 06:37:45;;;;;;;;;;;;;;;8.08;34.68;95986.09;5134460;27;1992;-49
2022/03/11 06:40:11;;;;;;;;;;;;;;;10.03;33.11;95989.09;5134681;27;1001;-49
2022/03/11 06:42:38;;;;;;;;;;;;;;;8.36;33.58;95989.13;5134069;27;1181;-49
2022/03/11 06:45:06;;;;;;;;;;;;;;;3.68;41.40;95983.50;5134261;27;937;-48
2022/03/11 06:47:32;;;;;;;;;;;;;;;3.04;43.47;95981.34;5134509;27;1031;-48
2022/03/11 06:49:58;;;;;;;;;;;;;;;1.31;47.77;95984.38;5134243;27;995;-48
2022/03/11 06:52:24;;;;;;;;;;;;;;;4.42;43.83;95998.06;5116849;27;1160;-48
2022/03/11 06:54:50;;;;;;;;;;;;;;;3.05;44.40;95984.84;5113349;28;1024;-48
2022/03/11 06:57:17;;;;;;;;;;;;;;;1.67;48.18;95992.03;5113535;28;1987;-48
2022/03/11 06:59:43;;;;;;;;;;;;;;;3.51;43.58;95996.03;5113244;28;1028;-49
2022/03/11 07:02:10;;;;;;;;;;;;;;;3.15;43.73;95993.91;5113742;28;1102;-48
2022/03/11 07:04:36;;;;;;;;;;;;;;;2.97;44.82;96000.31;5113674;28;964;-49
2022/03/11 07:07:03;;;;;;;;;;;;;;;4.38;42.75;96001.88;5113357;28;1102;-49
2022/03/11 07:09:29;;;;;;;;;;;;;;;3.86;42.45;96006.13;5113209;28;1079;-49
2022/03/11 07:12:01;;;;;;;;;;;;;;;8.11;36.00;96012.44;5113107;28;1107;-51
2022/03/11 07:14:27;;;;;;;;;;;;;;;13.11;28.02;96008.94;5112995;28;1953;-49
2022/03/11 07:16:56;;;;;;;;;;;;;;;15.75;24.86;96009.56;5114521;28;1913;-48
2022/03/11 07:19:22;;;;;;;;;;;;;;;16.62;23.40;96010.53;5117286;28;1048;-48
2022/03/11 07:21:48;;;;;;;;;;;;;;;17.01;22.89;96018.59;5117444;28;1104;-49
2022/03/11 07:24:14;;;;;;;;;;;;;;;18.05;21.27;96013.44;5117526;28;1059;-49
2022/03/11 07:26:40;;;;;;;;;;;;;;;18.44;20.88;96019.56;5117470;28;1039;-49
2022/03/11 07:29:07;;;;;;;;;;;;;;;17.19;22.77;96015.59;5116858;28;1130;-49
2022/03/11 07:31:33;;;;;;;;;;;;;;;16.20;22.93;96012.59;5117533;28;991;-48
2022/03/11 07:33:59;;;;;;;;;;;;;;;17.16;21.32;96015.97;5117169;28;980;-49
2022/03/11 07:36:25;;;;;;;;;;;;;;;18.91;19.64;96005.59;5117299;28;1990;-50
2022/03/11 07:38:51;;;;;;;;;;;;;;;17.92;18.68;96005.13;5117193;28;1161;-49
2022/03/11 07:41:17;;;;;;;;;;;;;;;19.65;17.47;96015.22;5117054;28;1008;-49
2022/03/11 07:43:44;;;;;;;;;;;;;;;19.81;17.93;96014.13;5116542;28;1308;-49
2022/03/11 07:46:11;;;;;;;;;;;;;;;21.11;17.32;96014.31;5117237;28;961;-50
2022/03/11 07:48:37;;;;;;;;;;;;;;;21.42;16.63;96010.19;5117074;28;999;-49
2022/03/11 07:51:03;;;;;;;;;;;;;;;21.63;16.95;96010.00;5122268;27;1227;-50
2022/03/11 07:53:29;;;;;;;;;;;;;;;21.45;16.70;96010.63;5137497;27;1028;-49
2022/03/11 07:55:55;;;;;;;;;;;;;;;22.20;15.67;96007.63;5137309;27;1917;-50
2022/03/11 07:58:21;;;;;;;;;;;;;;;17.89;18.76;95992.84;5137177;27;960;-50
2022/03/11 08:00:48;;;;;;;;;;;;;;;16.24;20.85;95996.91;5137151;27;1029;-49
2022/03/11 08:03:15;;;;;;;;;;;;;;;11.56;24.39;96000.03;5137531;27;1044;-49
2022/03/11 08:05:41;;;;;;;;;;;;;;;8.00;28.92;96004.47;5137014;27;1111;-48
2022/03/11 08:08:07;;;;;;;;;;;;;;;5.03;32.75;96003.63;5137137;27;1039;-48
2022/03/11 08:10:33;;;;;;;;;;;;;;;3.69;35.80;96007.22;5137291;27;1042;-48
2022/03/11 08:13:00;;;;;;;;;;;;;;;3.78;35.58;96000.50;5136931;27;1198;-48
2022/03/11 08:15:26;;;;;;;;;;;;;;;11.10;27.31;96005.22;5136832;27;1222;-48
2022/03/11 08:17:52;;;;;;;;;;;;;;;17.02;20.29;96011.34;5136831;27;1986;-48
2022/03/11 08:20:18;;;;;;;;;;;;;;;20.91;16.59;96016.16;5136920;27;1056;-49
2022/03/11 08:22:45;;;;;;;;;;;;;;;22.70;15.57;96015.25;5137106;27;1003;-49
2022/03/11 08:25:11;;;;;;;;;;;;;;;19.51;16.81;96008.00;5136732;27;1019;-49
2022/03/11 08:27:38;;;;;;;;;;;;;;;18.90;17.00;96014.72;5136408;27;1113;-49
2022/03/11 08:30:05;;;;;;;;;;;;;;;21.20;16.06;96010.34;5135704;27;1221;-49
2022/03/11 08:32:31;;;;;;;;;;;;;;;20.27;15.76;96012.72;5136990;27;993;-49
2022/03/11 08:34:58;;;;;;;;;;;;;;;18.79;16.26;96003.53;5136392;27;1027;-49
2022/03/11 08:37:24;;;;;;;;;;;;;;;18.52;17.80;96012.19;5136845;27;1988;-50
2022/03/11 08:39:51;;;;;;;;;;;;;;;21.13;15.45;96023.09;5136444;27;1837;-49
2022/03/11 08:42:17;;;;;;;;;;;;;;;21.34;15.16;96021.25;5136075;27;1014;-49
2022/03/11 08:44:43;;;;;;;;;;;;;;;19.41;15.86;96007.50;5136633;27;1023;-49
2022/03/11 08:47:10;;;;;;;;;;;;;;;18.47;17.80;96011.06;5136632;27;979;-49
2022/03/11 08:49:36;;;;;;;;;;;;;;;18.38;17.01;96010.31;5136322;27;1023;-48
2022/03/11 08:52:02;;;;;;;;;;;;;;;16.38;18.43;96002.41;5121954;27;1215;-49
2022/03/11 08:54:28;;;;;;;;;;;;;;;14.86;20.73;96005.06;5115619;28;948;-48
2022/03/11 08:56:54;;;;;;;;;;;;;;;14.00;20.87;96002.44;5115471;28;1978;-48
2022/03/11 08:59:21;;;;;;;;;;;;;;;12.91;22.95;95999.38;5115581;28;1028;-48
2022/03/11 09:01:48;;;;;;;;;;;;;;;12.17;23.73;96004.00;5115466;28;1028;-48
2022/03/11 09:04:14;;;;;;;;;;;;;;;12.17;23.63;95996.78;5115394;28;1150;-48
2022/03/11 09:06:40;;;;;;;;;;;;;;;11.90;24.41;96000.34;5115284;28;1019;-48
2022/03/11 09:09:06;;;;;;;;;;;;;;;12.19;23.02;96005.53;5115564;28;981;-48
2022/03/11 09:11:32;;;;;;;;;;;;;;;12.04;24.19;95993.63;5115325;28;952;-48
2022/03/11 09:13:58;;;;;;;;;;;;;;;12.72;22.95;95995.84;5115253;28;1076;-48
2022/03/11 09:16:24;;;;;;;;;;;;;;;12.42;23.28;95994.38;3194268;28;2018;-49
2022/03/11 09:18:51;;;;;;;;;;;;;;;12.19;23.17;95988.59;5115342;28;1157;-48
2022/03/11 09:21:17;;;;;;;;;;;;;;;12.40;22.30;95988.31;5115113;27;1197;-48
2022/03/11 09:23:43;;;;;;;;;;;;;;;10.76;24.05;95984.25;5115120;28;1140;-48
2022/03/11 09:26:09;;;;;;;;;;;;;;;11.06;24.46;95985.06;5114734;28;993;-48
2022/03/11 09:28:35;;;;;;;;;;;;;;;11.69;23.16;95977.25;5115280;28;1039;-48
2022/03/11 09:31:03;;;;;;;;;;;;;;;11.68;23.62;95975.56;5115080;28;1019;-49
2022/03/11 09:33:29;;;;;;;;;;;;;;;11.99;24.24;95979.81;5115095;28;957;-49
2022/03/11 09:35:55;;;;;;;;;;;;;;;11.29;23.58;95969.53;5114649;28;1087;-49
2022/03/11 09:38:21;;;;;;;;;;;;;;;9.75;24.55;95979.03;5115119;28;992;-49
2022/03/11 09:40:50;;;;;;;;;;;;;;;8.08;26.07;95983.41;5114300;28;932;-50
2022/03/11 09:43:16;;;;;;;;;;;;;;;7.44;26.51;95976.13;5113467;28;963;-49
2022/03/11 09:45:42;;;;;;;;;;;;;;;7.68;27.44;95978.63;5114486;28;1869;-48
2022/03/11 09:48:10;;;;;;;;;;;;;;;7.30;28.00;95973.72;5114573;28;1016;-48
2022/03/11 09:50:36;;;;;;;;;;;;;;;6.93;27.64;95976.59;5116351;27;1168;-52
2022/03/11 09:53:02;;;;;;;;;;;;;;;6.33;28.23;95979.31;5134998;27;967;-49
2022/03/11 09:55:29;;;;;;;;;;;;;;;7.40;27.04;95974.69;5134952;27;1023;-48
2022/03/11 09:57:55;;;;;;;;;;;;;;;7.51;27.38;95969.38;5134883;27;2236;-48
2022/03/11 10:00:21;;;;;;;;;;;;;;;8.32;26.48;95972.53;5135257;27;1014;-49
2022/03/11 10:02:47;;;;;;;;;;;;;;;7.31;27.76;95960.28;5134804;27;1049;-49
2022/03/11 10:05:14;;;;;;;;;;;;;;;6.08;28.71;95959.06;5134879;27;1115;-49
2022/03/11 10:07:40;;;;;;;;;;;;;;;5.64;30.57;95949.88;5133446;27;2930;-50
2022/03/11 10:10:14;;;;;;;;;;;;;;;5.47;30.56;95967.00;5114172;28;1861;-50
2022/03/11 10:12:44;;;;;;;;;;;;;;;5.33;30.33;95965.34;5113849;28;1880;-49
2022/03/11 10:15:10;;;;;;;;;;;;;;;5.06;30.69;95966.28;5114237;28;1165;-53
2022/03/11 10:17:38;;;;;;;;;;;;;;;4.93;29.04;95957.50;5112669;28;1910;-49
2022/03/11 10:20:07;;;;;;;;;;;;;;;4.62;31.00;95964.09;5118416;27;2990;-49
2022/03/11 10:22:34;;;;;;;;;;;;;;;4.59;31.76;95965.16;5123801;27;3132;-49
2022/03/11 10:25:06;;;;;;;;;;;;;;;4.52;30.73;95955.09;5134664;27;957;-48
2022/03/11 10:27:33;;;;;;;;;;;;;;;5.13;30.20;95952.63;5116339;27;3166;-48
2022/03/11 10:30:15;;;;;;;;;;;;;;;5.38;31.98;95946.44;5113881;28;1035;-48
2022/03/11 10:32:48;;;;;;;;;;;;;;;5.89;30.43;95946.25;5113584;28;945;-49
2022/03/11 10:35:16;;;;;;;;;;;;;;;5.37;30.85;95936.75;5113790;28;965;-49
2022/03/11 10:37:54;;;;;;;;;;;;;;;5.80;30.80;95947.78;5114670;27;3270;-49
2022/03/11 10:40:20;;;;;;;;;;;;;;;5.44;29.52;95945.97;5134556;27;1020;-49
2022/03/11 10:42:46;;;;;;;;;;;;;;;5.43;28.94;95944.31;5133744;27;1118;-49
2022/03/11 10:45:13;;;;;;;;;;;;;;;5.05;29.24;95943.41;5134512;27;1015;-47
2022/03/11 10:47:41;;;;;;;;;;;;;;;5.07;30.05;95941.50;5133916;27;1028;-48
2022/03/11 10:50:15;;;;;;;;;;;;;;;5.35;29.36;95938.69;5134237;27;987;-48
2022/03/11 10:52:41;;;;;;;;;;;;;;;6.80;28.56;95931.50;5133080;27;1192;-48
2022/03/11 10:55:17;;;;;;;;;;;;;;;7.43;28.27;95926.53;5134107;28;977;-48
2022/03/11 10:57:44;;;;;;;;;;;;;;;7.66;27.11;95931.81;5134031;27;1913;-48
2022/03/11 11:00:20;;;;;;;;;;;;;;;7.79;27.25;95932.53;5134230;27;1199;-48
2022/03/11 11:02:47;;;;;;;;;;;;;;;7.19;28.19;95927.53;5134041;27;977;-48
2022/03/11 11:05:14;;;;;;;;;;;;;;;7.28;26.85;95919.78;5134145;27;1012;-47
2022/03/11 11:07:41;;;;;;;;;;;;;;;6.75;26.58;95915.88;5133986;27;956;-48
2022/03/11 11:10:08;;;;;;;;;;;;;;;6.08;25.96;95927.19;5133954;27;1040;-48
2022/03/11 11:12:34;;;;;;;;;;;;;;;5.54;27.04;95917.84;5133746;27;1031;-48
2022/03/11 11:15:01;;;;;;;;;;;;;;;5.32;28.18;95915.06;5133816;27;2888;-48
2022/03/11 11:17:28;;;;;;;;;;;;;;;5.93;27.79;95918.53;5133562;27;1909;-48
2022/03/11 11:19:56;;;;;;;;;;;;;;;6.40;27.62;95916.78;5133935;27;964;-48
2022/03/11 11:22:25;;;;;;;;;;;;;;;6.06;28.38;95914.03;5133542;27;968;-48
2022/03/11 11:24:53;;;;;;;;;;;;;;;5.85;29.31;95912.94;5133970;27;1184;-48
2022/03/11 11:27:20;;;;;;;;;;;;;;;5.13;27.41;95903.09;5133482;27;1000;-48
2022/03/11 11:29:50;;;;;;;;;;;;;;;4.82;29.81;95907.09;5133994;27;935;-49
2022/03/11 11:32:17;;;;;;;;;;;;;;;5.32;29.56;95907.09;5133657;27;972;-49
2022/03/11 11:34:43;;;;;;;;;;;;;;;5.33;29.06;95912.31;5133968;27;1187;-48
2022/03/11 11:37:29;;;;;;;;;;;;;;;5.47;29.42;95903.34;5133904;27;1906;-48
2022/03/11 11:39:55;;;;;;;;;;;;;;;5.85;29.03;95900.50;5133317;27;1918;-48
2022/03/11 11:42:21;;;;;;;;;;;;;;;5.82;29.41;95899.88;5133743;27;1047;-48
2022/03/11 11:44:48;;;;;;;;;;;;;;;5.59;29.58;95894.47;5133611;27;1029;-49
2022/03/11 11:47:22;;;;;;;;;;;;;;;5.46;29.70;95894.53;5133740;27;1192;-49
2022/03/11 11:49:51;;;;;;;;;;;;;;;5.59;29.64;95883.84;5133574;27;989;-48
2022/03/11 11:52:35;;;;;;;;;;;;;;;5.54;30.87;95893.97;5117315;27;1089;-47
2022/03/11 11:55:12;;;;;;;;;;;;;;;5.36;30.46;95892.66;5113068;28;1025;-49
2022/03/11 11:57:38;;;;;;;;;;;;;;;5.50;29.73;95883.69;5112983;28;1914;-49
2022/03/11 12:00:05;;;;;;;;;;;;;;;5.93;30.43;95881.34;5112817;28;968;-48
2022/03/11 12:02:33;;;;;;;;;;;;;;;6.15;30.63;95885.94;5113512;28;1022;-48
2022/03/11 12:05:00;;;;;;;;;;;;;;;5.57;29.88;95888.44;5116395;28;1016;-49
2022/03/11 12:07:44;;;;;;;;;;;;;;;5.22;30.91;95886.53;5116844;28;975;-48
2022/03/11 12:10:24;;;;;;;;;;;;;;;4.94;31.55;95889.47;5116633;28;1027;-49
2022/03/11 12:12:54;;;;;;;;;;;;;;;4.63;31.31;95894.25;5116318;28;1083;-49
2022/03/11 12:15:22;;;;;;;;;;;;;;;4.30;32.96;95890.31;5116954;28;968;-49
2022/03/11 12:17:51;;;;;;;;;;;;;;;3.88;33.23;95893.13;5115942;27;2882;-49
2022/03/11 12:20:24;;;;;;;;;;;;;;;3.88;33.68;95892.28;5116680;27;1024;-49
2022/03/11 12:22:52;;;;;;;;;;;;;;;3.80;33.46;95891.94;5116669;28;1020;-49
2022/03/11 12:25:22;;;;;;;;;;;;;;;4.00;33.54;95878.22;5116456;28;1032;-49
2022/03/11 12:28:07;;;;;;;;;;;;;;;4.11;33.95;95883.63;5116424;28;1087;-50
2022/03/11 12:30:37;;;;;;;;;;;;;;;4.35;32.38;95885.56;5122587;27;2978;-50
2022/03/11 12:33:05;;;;;;;;;;;;;;;4.15;32.77;95886.91;5137089;27;1048;-48
2022/03/11 12:35:31;;;;;;;;;;;;;;;4.18;32.63;95885.88;5127242;27;3195;-54
2022/03/11 12:37:58;;;;;;;;;;;;;;;4.27;33.10;95885.25;5116001;28;1907;-49
2022/03/11 12:40:24;;;;;;;;;;;;;;;4.92;34.73;95881.63;5115819;28;1047;-49
2022/03/11 12:42:57;;;;;;;;;;;;;;;4.76;33.86;95873.94;5115540;28;1087;-48
2022/03/11 12:45:33;;;;;;;;;;;;;;;4.54;34.67;95871.91;5115784;28;1827;-48
2022/03/11 12:47:59;;;;;;;;;;;;;;;4.70;33.97;95869.03;5127750;27;3125;-48
2022/03/11 12:50:26;;;;;;;;;;;;;;;4.58;34.75;95869.91;5136583;27;1156;-48
2022/03/11 12:52:57;;;;;;;;;;;;;;;4.59;33.75;95876.88;5136519;27;977;-55
2022/03/11 12:55:30;;;;;;;;;;;;;;;4.11;34.61;95875.69;5136237;27;1103;-48
2022/03/11 12:57:58;;;;;;;;;;;;;;;3.97;34.42;95881.09;5136545;27;1971;-48
2022/03/11 13:00:25;;;;;;;;;;;;;;;3.65;34.80;95883.22;5136540;27;959;-48
2022/03/11 13:02:52;;;;;;;;;;;;;;;3.47;34.86;95882.63;5136494;27;1200;-48